Terminal Aerodrome Forecast
Issued by NWS

Home | Current Version | Previous Version | Text Only | Print | Product List | Glossary On
Versions: 1 2 3 4 5 6 7 8 9 10 11 12 13 14 15 16 17 18 19 20
000
FTAK31 PAFA 221131 CCA
TAFASC
TAF COR
PASC 221131Z 2212/2312 12007KT 1/4SM FG OVC002
      TEMPO 2212/2216 2SM BR
     FM221600 09006KT 2SM BR OVC003
     FM222200 06012KT P6SM OVC005
     FM230700 05010KT 1SM BR OVC003=

USA.gov is the U.S. government's official web portal to all federal, state and local government web resources and services.